sensor_id;sensor_type;location;lat;lon;timestamp;temperature;humidity
5723;DHT22;2886;49.722;8.612;2024-03-02T00:00:21;8.60;99.90
5723;DHT22;2886;49.722;8.612;2024-03-02T00:02:49;8.60;99.90
5723;DHT22;2886;49.722;8.612;2024-03-02T00:05:20;8.70;99.90
5723;DHT22;2886;49.722;8.612;2024-03-02T00:07:57;8.70;99.90
5723;DHT22;2886;49.722;8.612;2024-03-02T00:10:33;8.70;99.90
5723;DHT22;2886;49.722;8.612;2024-03-02T00:13:02;8.70;99.90
5723;DHT22;2886;49.722;8.612;2024-03-02T00:15:43;8.70;99.90
5723;DHT22;2886;49.722;8.612;2024-03-02T00:18:13;8.70;99.90
5723;DHT22;2886;49.722;8.612;2024-03-02T00:20:40;8.70;99.90
5723;DHT22;2886;49.722;8.612;2024-03-02T00:23:07;8.80;99.90
5723;DHT22;2886;49.722;8.612;2024-03-02T00:25:44;8.80;99.90
5723;DHT22;2886;49.722;8.612;2024-03-02T00:28:33;8.80;99.90
5723;DHT22;2886;49.722;8.612;2024-03-02T00:31:07;8.80;99.90
5723;DHT22;2886;49.722;8.612;2024-03-02T00:33:51;8.80;99.90
5723;DHT22;2886;49.722;8.612;2024-03-02T00:36:22;8.80;99.90
5723;DHT22;2886;49.722;8.612;2024-03-02T00:38:51;8.80;99.90
5723;DHT22;2886;49.722;8.612;2024-03-02T00:43:58;8.80;99.90
5723;DHT22;2886;49.722;8.612;2024-03-02T00:46:24;8.70;99.90
5723;DHT22;2886;49.722;8.612;2024-03-02T00:48:54;8.70;99.90
5723;DHT22;2886;49.722;8.612;2024-03-02T00:51:22;8.70;99.90
5723;DHT22;2886;49.722;8.612;2024-03-02T00:53:49;8.60;99.90
5723;DHT22;2886;49.722;8.612;2024-03-02T00:56:14;8.60;99.90
5723;DHT22;2886;49.722;8.612;2024-03-02T00:58:40;8.60;99.90
5723;DHT22;2886;49.722;8.612;2024-03-02T01:01:06;8.50;99.90
5723;DHT22;2886;49.722;8.612;2024-03-02T01:03:33;8.50;99.90
5723;DHT22;2886;49.722;8.612;2024-03-02T01:05:59;8.50;99.90
5723;DHT22;2886;49.722;8.612;2024-03-02T01:08:25;8.50;99.90
5723;DHT22;2886;49.722;8.612;2024-03-02T01:10:51;8.50;99.90
5723;DHT22;2886;49.722;8.612;2024-03-02T01:13:17;8.60;99.90
5723;DHT22;2886;49.722;8.612;2024-03-02T01:15:43;8.60;99.90
5723;DHT22;2886;49.722;8.612;2024-03-02T01:18:09;8.50;99.90
5723;DHT22;2886;49.722;8.612;2024-03-02T01:20:34;8.40;99.90
5723;DHT22;2886;49.722;8.612;2024-03-02T01:23:00;8.30;99.90
5723;DHT22;2886;49.722;8.612;2024-03-02T01:25:26;8.30;99.90
5723;DHT22;2886;49.722;8.612;2024-03-02T01:27:51;8.10;99.90
5723;DHT22;2886;49.722;8.612;2024-03-02T01:30:17;8.00;99.90
5723;DHT22;2886;49.722;8.612;2024-03-02T01:32:43;8.00;99.90
5723;DHT22;2886;49.722;8.612;2024-03-02T01:35:08;8.00;99.90
5723;DHT22;2886;49.722;8.612;2024-03-02T01:37:34;8.00;99.90
5723;DHT22;2886;49.722;8.612;2024-03-02T01:40:00;8.00;99.90
5723;DHT22;2886;49.722;8.612;2024-03-02T01:42:26;8.00;99.90
5723;DHT22;2886;49.722;8.612;2024-03-02T01:44:51;8.00;99.90
5723;DHT22;2886;49.722;8.612;2024-03-02T01:47:17;7.70;99.90
5723;DHT22;2886;49.722;8.612;2024-03-02T01:49:43;7.30;99.90
5723;DHT22;2886;49.722;8.612;2024-03-02T01:52:09;7.10;99.90
5723;DHT22;2886;49.722;8.612;2024-03-02T01:54:34;6.80;99.90
5723;DHT22;2886;49.722;8.612;2024-03-02T01:57:00;6.70;99.90
5723;DHT22;2886;49.722;8.612;2024-03-02T01:59:26;6.50;99.90
5723;DHT22;2886;49.722;8.612;2024-03-02T02:01:52;6.40;99.90
5723;DHT22;2886;49.722;8.612;2024-03-02T02:04:17;6.20;99.90
5723;DHT22;2886;49.722;8.612;2024-03-02T02:06:46;6.20;99.90
5723;DHT22;2886;49.722;8.612;2024-03-02T02:09:11;6.20;99.90
5723;DHT22;2886;49.722;8.612;2024-03-02T02:11:37;6.20;99.90
5723;DHT22;2886;49.722;8.612;2024-03-02T02:14:03;6.20;99.90
5723;DHT22;2886;49.722;8.612;2024-03-02T02:16:28;6.20;99.90
5723;DHT22;2886;49.722;8.612;2024-03-02T02:18:54;6.30;99.90
5723;DHT22;2886;49.722;8.612;2024-03-02T02:21:23;6.50;99.90
5723;DHT22;2886;49.722;8.612;2024-03-02T02:23:48;6.70;99.90
5723;DHT22;2886;49.722;8.612;2024-03-02T02:26:15;6.90;99.90
5723;DHT22;2886;49.722;8.612;2024-03-02T02:28:41;7.10;99.90
5723;DHT22;2886;49.722;8.612;2024-03-02T02:31:15;7.20;99.90
5723;DHT22;2886;49.722;8.612;2024-03-02T02:33:41;7.40;99.90
5723;DHT22;2886;49.722;8.612;2024-03-02T02:36:07;7.60;99.90
5723;DHT22;2886;49.722;8.612;2024-03-02T02:38:39;7.70;99.90
5723;DHT22;2886;49.722;8.612;2024-03-02T02:41:06;7.80;99.90
5723;DHT22;2886;49.722;8.612;2024-03-02T02:43:31;7.70;99.90
5723;DHT22;2886;49.722;8.612;2024-03-02T02:45:57;7.80;99.90
5723;DHT22;2886;49.722;8.612;2024-03-02T02:48:22;7.80;99.90
5723;DHT22;2886;49.722;8.612;2024-03-02T02:50:48;7.90;99.90
5723;DHT22;2886;49.722;8.612;2024-03-02T02:53:14;7.80;99.90
5723;DHT22;2886;49.722;8.612;2024-03-02T02:55:39;7.80;99.90
5723;DHT22;2886;49.722;8.612;2024-03-02T02:58:12;7.80;99.90
5723;DHT22;2886;49.722;8.612;2024-03-02T03:00:38;7.90;99.90
5723;DHT22;2886;49.722;8.612;2024-03-02T03:03:05;7.90;99.90
5723;DHT22;2886;49.722;8.612;2024-03-02T03:05:30;7.90;99.90
5723;DHT22;2886;49.722;8.612;2024-03-02T03:07:56;7.90;99.90
5723;DHT22;2886;49.722;8.612;2024-03-02T03:10:22;8.00;99.90
5723;DHT22;2886;49.722;8.612;2024-03-02T03:12:48;8.00;99.90
5723;DHT22;2886;49.722;8.612;2024-03-02T03:15:14;8.10;99.90
5723;DHT22;2886;49.722;8.612;2024-03-02T03:17:41;8.10;99.90
5723;DHT22;2886;49.722;8.612;2024-03-02T03:20:08;8.10;99.90
5723;DHT22;2886;49.722;8.612;2024-03-02T03:22:37;8.10;99.90
5723;DHT22;2886;49.722;8.612;2024-03-02T03:25:03;8.20;99.90
5723;DHT22;2886;49.722;8.612;2024-03-02T03:27:29;8.20;99.90
5723;DHT22;2886;49.722;8.612;2024-03-02T03:29:55;8.20;99.90
5723;DHT22;2886;49.722;8.612;2024-03-02T03:32:20;8.20;99.90
5723;DHT22;2886;49.722;8.612;2024-03-02T03:34:46;8.00;99.90
5723;DHT22;2886;49.722;8.612;2024-03-02T03:37:13;7.80;99.90
5723;DHT22;2886;49.722;8.612;2024-03-02T03:39:39;7.50;99.90
5723;DHT22;2886;49.722;8.612;2024-03-02T03:42:05;7.30;99.90
5723;DHT22;2886;49.722;8.612;2024-03-02T03:44:31;7.10;99.90
5723;DHT22;2886;49.722;8.612;2024-03-02T03:46:57;6.90;99.90
5723;DHT22;2886;49.722;8.612;2024-03-02T03:49:23;6.80;99.90
5723;DHT22;2886;49.722;8.612;2024-03-02T03:51:48;6.60;99.90
5723;DHT22;2886;49.722;8.612;2024-03-02T03:54:14;6.50;99.90
5723;DHT22;2886;49.722;8.612;2024-03-02T03:56:40;6.40;99.90
5723;DHT22;2886;49.722;8.612;2024-03-02T03:59:06;6.30;99.90
5723;DHT22;2886;49.722;8.612;2024-03-02T04:01:31;6.10;99.90
5723;DHT22;2886;49.722;8.612;2024-03-02T04:03:57;6.00;99.90
5723;DHT22;2886;49.722;8.612;2024-03-02T04:06:23;6.00;99.90
5723;DHT22;2886;49.722;8.612;2024-03-02T04:08:49;6.00;99.90
5723;DHT22;2886;49.722;8.612;2024-03-02T04:11:14;5.90;99.90
5723;DHT22;2886;49.722;8.612;2024-03-02T04:13:40;5.90;99.90
5723;DHT22;2886;49.722;8.612;2024-03-02T04:16:06;5.80;99.90
5723;DHT22;2886;49.722;8.612;2024-03-02T04:18:32;5.70;99.90
5723;DHT22;2886;49.722;8.612;2024-03-02T04:20:58;5.70;99.90
5723;DHT22;2886;49.722;8.612;2024-03-02T04:23:25;5.70;99.90
5723;DHT22;2886;49.722;8.612;2024-03-02T04:25:51;5.60;99.90
5723;DHT22;2886;49.722;8.612;2024-03-02T04:28:17;5.60;99.90
5723;DHT22;2886;49.722;8.612;2024-03-02T04:30:42;5.60;99.90
5723;DHT22;2886;49.722;8.612;2024-03-02T04:33:08;5.50;99.90
5723;DHT22;2886;49.722;8.612;2024-03-02T04:35:36;5.50;99.90
5723;DHT22;2886;49.722;8.612;2024-03-02T04:38:01;5.60;99.90
5723;DHT22;2886;49.722;8.612;2024-03-02T04:40:27;5.50;99.90
5723;DHT22;2886;49.722;8.612;2024-03-02T04:42:53;5.40;99.90
5723;DHT22;2886;49.722;8.612;2024-03-02T04:45:18;5.40;99.90
5723;DHT22;2886;49.722;8.612;2024-03-02T04:47:44;5.40;99.90
5723;DHT22;2886;49.722;8.612;2024-03-02T04:50:10;5.40;99.90
5723;DHT22;2886;49.722;8.612;2024-03-02T04:52:36;5.30;99.90
5723;DHT22;2886;49.722;8.612;2024-03-02T04:55:03;5.30;99.90
5723;DHT22;2886;49.722;8.612;2024-03-02T04:57:42;5.30;99.90
5723;DHT22;2886;49.722;8.612;2024-03-02T05:00:08;5.20;99.90
5723;DHT22;2886;49.722;8.612;2024-03-02T05:02:34;5.20;99.90
5723;DHT22;2886;49.722;8.612;2024-03-02T05:05:00;5.20;99.90
5723;DHT22;2886;49.722;8.612;2024-03-02T05:07:26;5.20;99.90
5723;DHT22;2886;49.722;8.612;2024-03-02T05:09:51;5.20;99.90
5723;DHT22;2886;49.722;8.612;2024-03-02T05:12:17;5.10;99.90
5723;DHT22;2886;49.722;8.612;2024-03-02T05:15:02;5.20;99.90
5723;DHT22;2886;49.722;8.612;2024-03-02T05:17:27;5.10;99.90
5723;DHT22;2886;49.722;8.612;2024-03-02T05:19:53;5.10;99.90
5723;DHT22;2886;49.722;8.612;2024-03-02T05:22:18;5.10;99.90
5723;DHT22;2886;49.722;8.612;2024-03-02T05:24:44;5.00;99.90
5723;DHT22;2886;49.722;8.612;2024-03-02T05:27:10;4.90;99.90
5723;DHT22;2886;49.722;8.612;2024-03-02T05:29:35;4.90;99.90
5723;DHT22;2886;49.722;8.612;2024-03-02T05:32:01;4.90;99.90
5723;DHT22;2886;49.722;8.612;2024-03-02T05:34:27;4.90;99.90
5723;DHT22;2886;49.722;8.612;2024-03-02T05:36:52;4.80;99.90
5723;DHT22;2886;49.722;8.612;2024-03-02T05:39:18;4.80;99.90
5723;DHT22;2886;49.722;8.612;2024-03-02T05:41:44;4.80;99.90
5723;DHT22;2886;49.722;8.612;2024-03-02T05:44:09;4.80;99.90
5723;DHT22;2886;49.722;8.612;2024-03-02T05:46:35;4.90;99.90
5723;DHT22;2886;49.722;8.612;2024-03-02T05:49:01;4.90;99.90
5723;DHT22;2886;49.722;8.612;2024-03-02T05:51:26;4.90;99.90
5723;DHT22;2886;49.722;8.612;2024-03-02T05:53:52;4.90;99.90
5723;DHT22;2886;49.722;8.612;2024-03-02T05:56:18;4.90;99.90
5723;DHT22;2886;49.722;8.612;2024-03-02T05:58:43;5.00;99.90
5723;DHT22;2886;49.722;8.612;2024-03-02T06:01:27;5.00;99.90
5723;DHT22;2886;49.722;8.612;2024-03-02T06:03:57;5.00;99.90
5723;DHT22;2886;49.722;8.612;2024-03-02T06:06:24;5.00;99.90
5723;DHT22;2886;49.722;8.612;2024-03-02T06:08:50;5.00;99.90
5723;DHT22;2886;49.722;8.612;2024-03-02T06:11:16;5.00;99.90
5723;DHT22;2886;49.722;8.612;2024-03-02T06:13:42;5.00;99.90
5723;DHT22;2886;49.722;8.612;2024-03-02T06:16:07;4.90;99.90
5723;DHT22;2886;49.722;8.612;2024-03-02T06:18:34;4.90;99.90
5723;DHT22;2886;49.722;8.612;2024-03-02T06:20:59;4.90;99.90
5723;DHT22;2886;49.722;8.612;2024-03-02T06:23:26;4.90;99.90
5723;DHT22;2886;49.722;8.612;2024-03-02T06:25:52;5.00;99.90
5723;DHT22;2886;49.722;8.612;2024-03-02T06:28:18;5.00;99.90
5723;DHT22;2886;49.722;8.612;2024-03-02T06:30:43;5.00;99.90
5723;DHT22;2886;49.722;8.612;2024-03-02T06:33:10;4.90;99.90
5723;DHT22;2886;49.722;8.612;2024-03-02T06:35:36;4.90;99.90
5723;DHT22;2886;49.722;8.612;2024-03-02T06:38:02;4.90;99.90
5723;DHT22;2886;49.722;8.612;2024-03-02T06:40:28;5.00;99.90
5723;DHT22;2886;49.722;8.612;2024-03-02T06:42:53;5.00;99.90
5723;DHT22;2886;49.722;8.612;2024-03-02T06:45:19;5.00;99.90
5723;DHT22;2886;49.722;8.612;2024-03-02T06:47:44;5.00;99.90
5723;DHT22;2886;49.722;8.612;2024-03-02T06:50:11;5.00;99.90
5723;DHT22;2886;49.722;8.612;2024-03-02T06:52:36;5.00;99.90
5723;DHT22;2886;49.722;8.612;2024-03-02T06:55:02;5.00;99.90
5723;DHT22;2886;49.722;8.612;2024-03-02T06:57:30;5.00;99.90
5723;DHT22;2886;49.722;8.612;2024-03-02T06:59:55;5.00;99.90
5723;DHT22;2886;49.722;8.612;2024-03-02T07:02:24;5.00;99.90
5723;DHT22;2886;49.722;8.612;2024-03-02T07:04:52;5.00;99.90
5723;DHT22;2886;49.722;8.612;2024-03-02T07:07:18;5.10;99.90
5723;DHT22;2886;49.722;8.612;2024-03-02T07:09:43;5.10;99.90
5723;DHT22;2886;49.722;8.612;2024-03-02T07:12:09;5.10;99.90
5723;DHT22;2886;49.722;8.612;2024-03-02T07:14:35;5.20;99.90
5723;DHT22;2886;49.722;8.612;2024-03-02T07:17:22;5.10;99.90
5723;DHT22;2886;49.722;8.612;2024-03-02T07:19:48;5.10;99.90
5723;DHT22;2886;49.722;8.612;2024-03-02T07:22:14;5.10;99.90
5723;DHT22;2886;49.722;8.612;2024-03-02T07:24:43;5.00;99.90
5723;DHT22;2886;49.722;8.612;2024-03-02T07:27:09;5.00;99.90
5723;DHT22;2886;49.722;8.612;2024-03-02T07:29:36;5.00;99.90
5723;DHT22;2886;49.722;8.612;2024-03-02T07:32:01;5.00;99.90
5723;DHT22;2886;49.722;8.612;2024-03-02T07:34:27;5.00;99.90
5723;DHT22;2886;49.722;8.612;2024-03-02T07:36:53;5.00;99.90
5723;DHT22;2886;49.722;8.612;2024-03-02T07:39:19;5.10;99.90
5723;DHT22;2886;49.722;8.612;2024-03-02T07:41:45;5.10;99.90
5723;DHT22;2886;49.722;8.612;2024-03-02T07:44:11;5.20;99.90
5723;DHT22;2886;49.722;8.612;2024-03-02T07:46:42;5.50;99.90
5723;DHT22;2886;49.722;8.612;2024-03-02T07:49:09;6.00;99.90
5723;DHT22;2886;49.722;8.612;2024-03-02T07:51:35;6.40;99.90
5723;DHT22;2886;49.722;8.612;2024-03-02T07:54:00;6.70;99.90
5723;DHT22;2886;49.722;8.612;2024-03-02T07:56:26;6.80;99.90
5723;DHT22;2886;49.722;8.612;2024-03-02T07:58:52;7.00;99.90
5723;DHT22;2886;49.722;8.612;2024-03-02T08:01:17;7.10;99.90
5723;DHT22;2886;49.722;8.612;2024-03-02T08:03:44;7.20;99.90
5723;DHT22;2886;49.722;8.612;2024-03-02T08:06:16;7.40;99.90
5723;DHT22;2886;49.722;8.612;2024-03-02T08:08:41;7.50;99.90
5723;DHT22;2886;49.722;8.612;2024-03-02T08:11:07;7.70;99.90
5723;DHT22;2886;49.722;8.612;2024-03-02T08:13:32;7.80;99.90
5723;DHT22;2886;49.722;8.612;2024-03-02T08:15:58;8.00;99.90
5723;DHT22;2886;49.722;8.612;2024-03-02T08:18:24;8.10;99.90
5723;DHT22;2886;49.722;8.612;2024-03-02T08:20:50;8.20;99.90
5723;DHT22;2886;49.722;8.612;2024-03-02T08:23:15;8.40;99.90
5723;DHT22;2886;49.722;8.612;2024-03-02T08:25:42;8.60;99.90
5723;DHT22;2886;49.722;8.612;2024-03-02T08:28:08;8.80;99.90
5723;DHT22;2886;49.722;8.612;2024-03-02T08:30:33;8.90;99.90
5723;DHT22;2886;49.722;8.612;2024-03-02T08:32:59;9.10;99.90
5723;DHT22;2886;49.722;8.612;2024-03-02T08:35:25;9.30;99.90
5723;DHT22;2886;49.722;8.612;2024-03-02T08:37:51;9.50;99.90
5723;DHT22;2886;49.722;8.612;2024-03-02T08:40:17;9.70;99.90
5723;DHT22;2886;49.722;8.612;2024-03-02T08:42:42;9.90;99.90
5723;DHT22;2886;49.722;8.612;2024-03-02T08:45:08;10.10;99.90
5723;DHT22;2886;49.722;8.612;2024-03-02T08:47:34;10.40;99.90
5723;DHT22;2886;49.722;8.612;2024-03-02T08:50:00;10.60;99.90
5723;DHT22;2886;49.722;8.612;2024-03-02T08:52:26;10.80;99.90
5723;DHT22;2886;49.722;8.612;2024-03-02T08:54:52;11.00;99.90
5723;DHT22;2886;49.722;8.612;2024-03-02T08:57:18;11.10;99.90
5723;DHT22;2886;49.722;8.612;2024-03-02T08:59:44;11.30;99.90
5723;DHT22;2886;49.722;8.612;2024-03-02T09:02:10;11.40;99.90
5723;DHT22;2886;49.722;8.612;2024-03-02T09:04:36;11.40;99.90
5723;DHT22;2886;49.722;8.612;2024-03-02T09:07:01;11.50;98.40
5723;DHT22;2886;49.722;8.612;2024-03-02T09:09:27;11.50;99.00
5723;DHT22;2886;49.722;8.612;2024-03-02T09:11:53;11.50;99.60
5723;DHT22;2886;49.722;8.612;2024-03-02T09:14:20;11.60;99.90
5723;DHT22;2886;49.722;8.612;2024-03-02T09:16:46;11.60;99.60
5723;DHT22;2886;49.722;8.612;2024-03-02T09:19:12;11.60;99.90
5723;DHT22;2886;49.722;8.612;2024-03-02T09:21:38;11.60;99.90
5723;DHT22;2886;49.722;8.612;2024-03-02T09:24:04;11.70;98.10
5723;DHT22;2886;49.722;8.612;2024-03-02T09:26:32;11.70;97.90
5723;DHT22;2886;49.722;8.612;2024-03-02T09:28:59;11.60;99.00
5723;DHT22;2886;49.722;8.612;2024-03-02T09:31:25;11.50;99.90
5723;DHT22;2886;49.722;8.612;2024-03-02T09:33:50;11.40;99.90
5723;DHT22;2886;49.722;8.612;2024-03-02T09:36:17;11.50;99.90
5723;DHT22;2886;49.722;8.612;2024-03-02T09:38:44;11.70;99.90
5723;DHT22;2886;49.722;8.612;2024-03-02T09:41:09;11.80;99.40
5723;DHT22;2886;49.722;8.612;2024-03-02T09:43:35;11.90;98.70
5723;DHT22;2886;49.722;8.612;2024-03-02T09:46:01;12.00;99.20
5723;DHT22;2886;49.722;8.612;2024-03-02T09:48:27;12.30;96.00
5723;DHT22;2886;49.722;8.612;2024-03-02T09:50:52;12.70;96.90
5723;DHT22;2886;49.722;8.612;2024-03-02T09:53:18;12.90;93.80
5723;DHT22;2886;49.722;8.612;2024-03-02T09:55:47;13.10;85.80
5723;DHT22;2886;49.722;8.612;2024-03-02T09:58:13;13.50;89.10
5723;DHT22;2886;49.722;8.612;2024-03-02T10:00:38;13.80;71.50
5723;DHT22;2886;49.722;8.612;2024-03-02T10:03:04;13.80;67.30
5723;DHT22;2886;49.722;8.612;2024-03-02T10:08:42;13.70;68.20
5723;DHT22;2886;49.722;8.612;2024-03-02T10:11:09;14.00;63.80
5723;DHT22;2886;49.722;8.612;2024-03-02T10:13:34;14.20;64.30
5723;DHT22;2886;49.722;8.612;2024-03-02T10:16:11;14.40;63.10
5723;DHT22;2886;49.722;8.612;2024-03-02T10:18:37;14.50;60.50
5723;DHT22;2886;49.722;8.612;2024-03-02T10:21:15;14.50;59.70
5723;DHT22;2886;49.722;8.612;2024-03-02T10:23:41;14.60;60.20
5723;DHT22;2886;49.722;8.612;2024-03-02T10:26:18;14.80;58.00
5723;DHT22;2886;49.722;8.612;2024-03-02T10:28:47;14.40;59.90
5723;DHT22;2886;49.722;8.612;2024-03-02T10:31:13;14.40;62.30
5723;DHT22;2886;49.722;8.612;2024-03-02T10:33:40;14.60;59.90
5723;DHT22;2886;49.722;8.612;2024-03-02T10:36:05;14.70;59.30
5723;DHT22;2886;49.722;8.612;2024-03-02T10:38:31;14.70;58.50
5723;DHT22;2886;49.722;8.612;2024-03-02T10:40:58;14.50;58.90
5723;DHT22;2886;49.722;8.612;2024-03-02T10:43:25;14.30;60.90
5723;DHT22;2886;49.722;8.612;2024-03-02T10:45:52;14.20;61.10
5723;DHT22;2886;49.722;8.612;2024-03-02T10:48:19;14.10;61.60
5723;DHT22;2886;49.722;8.612;2024-03-02T10:50:46;14.20;60.90
5723;DHT22;2886;49.722;8.612;2024-03-02T10:53:12;14.20;61.50
5723;DHT22;2886;49.722;8.612;2024-03-02T10:55:38;14.40;60.40
5723;DHT22;2886;49.722;8.612;2024-03-02T10:58:04;14.60;59.80
5723;DHT22;2886;49.722;8.612;2024-03-02T11:00:34;14.80;58.00
5723;DHT22;2886;49.722;8.612;2024-03-02T11:03:06;15.00;56.90
5723;DHT22;2886;49.722;8.612;2024-03-02T11:05:37;15.00;54.70
5723;DHT22;2886;49.722;8.612;2024-03-02T11:08:08;15.10;55.10
5723;DHT22;2886;49.722;8.612;2024-03-02T11:10:41;15.30;53.40
5723;DHT22;2886;49.722;8.612;2024-03-02T11:13:11;15.40;50.40
5723;DHT22;2886;49.722;8.612;2024-03-02T11:15:40;15.30;50.00
5723;DHT22;2886;49.722;8.612;2024-03-02T11:18:06;15.30;49.60
5723;DHT22;2886;49.722;8.612;2024-03-02T11:20:36;15.30;49.60
5723;DHT22;2886;49.722;8.612;2024-03-02T11:23:08;15.30;50.00
5723;DHT22;2886;49.722;8.612;2024-03-02T11:25:34;15.40;49.20
5723;DHT22;2886;49.722;8.612;2024-03-02T11:33:06;15.40;47.20
5723;DHT22;2886;49.722;8.612;2024-03-02T11:35:40;15.30;47.80
5723;DHT22;2886;49.722;8.612;2024-03-02T11:38:09;15.30;47.10
5723;DHT22;2886;49.722;8.612;2024-03-02T11:40:35;15.50;46.40
5723;DHT22;2886;49.722;8.612;2024-03-02T11:43:01;15.80;44.70
5723;DHT22;2886;49.722;8.612;2024-03-02T11:45:27;16.00;44.10
5723;DHT22;2886;49.722;8.612;2024-03-02T11:47:57;16.00;43.60
5723;DHT22;2886;49.722;8.612;2024-03-02T11:50:34;16.10;43.30
5723;DHT22;2886;49.722;8.612;2024-03-02T11:53:07;16.20;42.30
5723;DHT22;2886;49.722;8.612;2024-03-02T11:55:36;16.10;42.60
5723;DHT22;2886;49.722;8.612;2024-03-02T11:58:03;16.00;42.00
5723;DHT22;2886;49.722;8.612;2024-03-02T12:00:29;15.90;41.70
5723;DHT22;2886;49.722;8.612;2024-03-02T12:03:06;15.90;41.20
5723;DHT22;2886;49.722;8.612;2024-03-02T12:05:33;15.90;42.50
5723;DHT22;2886;49.722;8.612;2024-03-02T12:08:06;15.90;43.10
5723;DHT22;2886;49.722;8.612;2024-03-02T12:10:32;15.80;43.10
5723;DHT22;2886;49.722;8.612;2024-03-02T12:12:59;15.80;43.40
5723;DHT22;2886;49.722;8.612;2024-03-02T12:15:43;15.80;43.40
5723;DHT22;2886;49.722;8.612;2024-03-02T12:18:08;15.80;43.80
5723;DHT22;2886;49.722;8.612;2024-03-02T12:20:35;15.70;43.20
5723;DHT22;2886;49.722;8.612;2024-03-02T12:23:02;15.70;43.10
5723;DHT22;2886;49.722;8.612;2024-03-02T12:25:30;15.70;44.10
5723;DHT22;2886;49.722;8.612;2024-03-02T12:27:58;15.70;42.80
5723;DHT22;2886;49.722;8.612;2024-03-02T12:30:27;15.70;43.20
5723;DHT22;2886;49.722;8.612;2024-03-02T12:32:54;15.60;43.10
5723;DHT22;2886;49.722;8.612;2024-03-02T12:35:20;15.60;44.00
5723;DHT22;2886;49.722;8.612;2024-03-02T12:37:50;15.70;43.10
5723;DHT22;2886;49.722;8.612;2024-03-02T12:40:17;15.60;43.80
5723;DHT22;2886;49.722;8.612;2024-03-02T12:42:44;15.60;43.90
5723;DHT22;2886;49.722;8.612;2024-03-02T12:45:11;15.60;44.10
5723;DHT22;2886;49.722;8.612;2024-03-02T12:47:37;15.60;44.90
5723;DHT22;2886;49.722;8.612;2024-03-02T12:50:04;15.40;44.70
5723;DHT22;2886;49.722;8.612;2024-03-02T12:52:30;15.40;45.60
5723;DHT22;2886;49.722;8.612;2024-03-02T12:54:58;15.20;46.30
5723;DHT22;2886;49.722;8.612;2024-03-02T12:57:28;15.20;46.40
5723;DHT22;2886;49.722;8.612;2024-03-02T13:00:05;15.10;46.40
5723;DHT22;2886;49.722;8.612;2024-03-02T13:02:40;15.20;46.90
5723;DHT22;2886;49.722;8.612;2024-03-02T13:05:07;15.20;46.70
5723;DHT22;2886;49.722;8.612;2024-03-02T13:07:39;15.30;46.60
5723;DHT22;2886;49.722;8.612;2024-03-02T13:10:06;15.30;47.00
5723;DHT22;2886;49.722;8.612;2024-03-02T13:12:33;15.30;46.90
5723;DHT22;2886;49.722;8.612;2024-03-02T13:14:58;15.20;46.70
5723;DHT22;2886;49.722;8.612;2024-03-02T13:17:24;15.20;46.30
5723;DHT22;2886;49.722;8.612;2024-03-02T13:19:55;15.20;46.10
5723;DHT22;2886;49.722;8.612;2024-03-02T13:22:20;15.20;46.70
5723;DHT22;2886;49.722;8.612;2024-03-02T13:24:47;15.30;45.70
5723;DHT22;2886;49.722;8.612;2024-03-02T13:27:13;15.20;46.30
5723;DHT22;2886;49.722;8.612;2024-03-02T13:29:39;15.30;46.50
5723;DHT22;2886;49.722;8.612;2024-03-02T13:32:05;15.20;47.00
5723;DHT22;2886;49.722;8.612;2024-03-02T13:34:30;15.20;46.40
5723;DHT22;2886;49.722;8.612;2024-03-02T13:36:56;15.10;46.40
5723;DHT22;2886;49.722;8.612;2024-03-02T13:39:21;15.10;47.10
5723;DHT22;2886;49.722;8.612;2024-03-02T13:41:48;15.20;46.10
5723;DHT22;2886;49.722;8.612;2024-03-02T13:44:21;15.40;46.70
5723;DHT22;2886;49.722;8.612;2024-03-02T13:46:47;15.50;46.40
5723;DHT22;2886;49.722;8.612;2024-03-02T13:49:13;15.60;46.70
5723;DHT22;2886;49.722;8.612;2024-03-02T13:51:39;15.60;46.50
5723;DHT22;2886;49.722;8.612;2024-03-02T13:54:05;15.60;46.00
5723;DHT22;2886;49.722;8.612;2024-03-02T13:56:31;15.60;46.00
5723;DHT22;2886;49.722;8.612;2024-03-02T13:58:58;15.50;46.40
5723;DHT22;2886;49.722;8.612;2024-03-02T14:01:23;15.50;46.50
5723;DHT22;2886;49.722;8.612;2024-03-02T14:03:49;15.50;46.80
5723;DHT22;2886;49.722;8.612;2024-03-02T14:06:14;15.50;45.60
5723;DHT22;2886;49.722;8.612;2024-03-02T14:08:40;15.60;46.20
5723;DHT22;2886;49.722;8.612;2024-03-02T14:11:07;15.80;47.70
5723;DHT22;2886;49.722;8.612;2024-03-02T14:13:34;16.00;45.90
5723;DHT22;2886;49.722;8.612;2024-03-02T14:16:00;16.10;45.60
5723;DHT22;2886;49.722;8.612;2024-03-02T14:18:25;16.00;45.40
5723;DHT22;2886;49.722;8.612;2024-03-02T14:20:51;15.90;44.70
5723;DHT22;2886;49.722;8.612;2024-03-02T14:23:18;15.80;45.40
5723;DHT22;2886;49.722;8.612;2024-03-02T14:25:44;15.70;46.20
5723;DHT22;2886;49.722;8.612;2024-03-02T14:28:10;15.60;46.50
5723;DHT22;2886;49.722;8.612;2024-03-02T14:30:37;15.60;47.20
5723;DHT22;2886;49.722;8.612;2024-03-02T14:33:03;15.60;48.00
5723;DHT22;2886;49.722;8.612;2024-03-02T14:35:28;15.50;48.00
5723;DHT22;2886;49.722;8.612;2024-03-02T14:37:55;15.60;46.10
5723;DHT22;2886;49.722;8.612;2024-03-02T14:40:23;15.70;47.40
5723;DHT22;2886;49.722;8.612;2024-03-02T14:42:52;15.60;47.30
5723;DHT22;2886;49.722;8.612;2024-03-02T14:45:17;15.60;47.40
5723;DHT22;2886;49.722;8.612;2024-03-02T14:47:43;15.60;46.60
5723;DHT22;2886;49.722;8.612;2024-03-02T14:50:09;15.50;45.80
5723;DHT22;2886;49.722;8.612;2024-03-02T14:52:35;15.40;45.70
5723;DHT22;2886;49.722;8.612;2024-03-02T14:55:01;15.40;45.80
5723;DHT22;2886;49.722;8.612;2024-03-02T14:57:28;15.40;45.30
5723;DHT22;2886;49.722;8.612;2024-03-02T14:59:53;15.40;46.50
5723;DHT22;2886;49.722;8.612;2024-03-02T15:02:20;15.40;46.70
5723;DHT22;2886;49.722;8.612;2024-03-02T15:04:45;15.50;47.10
5723;DHT22;2886;49.722;8.612;2024-03-02T15:07:13;15.50;47.30
5723;DHT22;2886;49.722;8.612;2024-03-02T15:09:39;15.50;47.60
5723;DHT22;2886;49.722;8.612;2024-03-02T15:12:05;15.60;47.30
5723;DHT22;2886;49.722;8.612;2024-03-02T15:14:31;15.60;47.50
5723;DHT22;2886;49.722;8.612;2024-03-02T15:16:57;15.70;46.50
5723;DHT22;2886;49.722;8.612;2024-03-02T15:19:23;15.80;44.30
5723;DHT22;2886;49.722;8.612;2024-03-02T15:21:49;15.70;44.20
5723;DHT22;2886;49.722;8.612;2024-03-02T15:24:14;15.80;44.00
5723;DHT22;2886;49.722;8.612;2024-03-02T15:26:40;15.80;44.10
5723;DHT22;2886;49.722;8.612;2024-03-02T15:29:05;15.80;43.90
5723;DHT22;2886;49.722;8.612;2024-03-02T15:31:31;15.80;44.10
5723;DHT22;2886;49.722;8.612;2024-03-02T15:33:57;15.80;43.60
5723;DHT22;2886;49.722;8.612;2024-03-02T15:36:23;15.70;44.10
5723;DHT22;2886;49.722;8.612;2024-03-02T15:38:49;15.60;44.10
5723;DHT22;2886;49.722;8.612;2024-03-02T15:41:15;15.50;44.60
5723;DHT22;2886;49.722;8.612;2024-03-02T15:43:41;15.50;44.90
5723;DHT22;2886;49.722;8.612;2024-03-02T15:46:08;15.40;44.90
5723;DHT22;2886;49.722;8.612;2024-03-02T15:48:34;15.30;44.40
5723;DHT22;2886;49.722;8.612;2024-03-02T15:50:59;15.10;45.00
5723;DHT22;2886;49.722;8.612;2024-03-02T15:53:25;15.00;45.50
5723;DHT22;2886;49.722;8.612;2024-03-02T15:55:51;14.80;45.90
5723;DHT22;2886;49.722;8.612;2024-03-02T15:58:16;14.60;46.30
5723;DHT22;2886;49.722;8.612;2024-03-02T16:00:42;14.50;47.10
5723;DHT22;2886;49.722;8.612;2024-03-02T16:03:08;14.30;48.40
5723;DHT22;2886;49.722;8.612;2024-03-02T16:05:33;14.30;49.60
5723;DHT22;2886;49.722;8.612;2024-03-02T16:07:59;14.30;50.30
5723;DHT22;2886;49.722;8.612;2024-03-02T16:10:24;14.20;50.50
5723;DHT22;2886;49.722;8.612;2024-03-02T16:12:50;14.20;50.30
5723;DHT22;2886;49.722;8.612;2024-03-02T16:15:17;14.10;50.50
5723;DHT22;2886;49.722;8.612;2024-03-02T16:17:43;14.00;51.50